createdAt,value
2022-07-29T00:01:03.735Z,16.17
2022-07-29T00:03:39.723Z,16.14
2022-07-29T00:06:16.851Z,16.13
2022-07-29T00:08:52.874Z,16.13
2022-07-29T00:11:28.933Z,16.11
2022-07-29T00:14:05.084Z,16.09
2022-07-29T00:16:41.470Z,16.08
2022-07-29T00:19:17.547Z,16.06
2022-07-29T00:21:53.542Z,16.04
2022-07-29T00:24:29.441Z,16.04
2022-07-29T00:27:05.659Z,16.01
2022-07-29T00:29:41.846Z,15.99
2022-07-29T00:32:18.634Z,15.99
2022-07-29T00:35:12.899Z,15.97
2022-07-29T00:37:49.060Z,15.94
2022-07-29T00:40:25.275Z,15.93
2022-07-29T00:43:01.264Z,15.92
2022-07-29T00:45:37.794Z,15.92
2022-07-29T00:48:13.909Z,15.91
2022-07-29T00:50:51.445Z,15.92
2022-07-29T00:53:28.616Z,15.92
2022-07-29T00:56:05.088Z,15.92
2022-07-29T00:58:42.119Z,15.94
2022-07-29T01:01:18.164Z,15.94
2022-07-29T01:03:54.704Z,15.94
2022-07-29T01:06:31.202Z,15.95
2022-07-29T01:09:08.003Z,15.97
2022-07-29T01:11:45.177Z,15.97
2022-07-29T01:14:23.325Z,15.96
2022-07-29T01:17:14.644Z,15.97
2022-07-29T01:20:04.327Z,15.98
2022-07-29T01:23:14.178Z,16.01
2022-07-29T01:26:29.394Z,16.02
2022-07-29T01:29:21.048Z,16.04
2022-07-29T01:32:01.421Z,16.04
2022-07-29T01:34:49.741Z,16.06
2022-07-29T01:37:38.779Z,16.06
2022-07-29T01:40:26.265Z,16.05
2022-07-29T01:43:12.714Z,16.05
2022-07-29T01:45:58.860Z,16.04
2022-07-29T01:48:48.121Z,16.03
2022-07-29T01:51:34.658Z,16.04
2022-07-29T01:54:19.032Z,16.05
2022-07-29T01:57:00.455Z,16.06
2022-07-29T01:59:39.498Z,16.08
2022-07-29T02:02:18.581Z,16.08
2022-07-29T02:04:56.703Z,16.08
2022-07-29T02:07:36.607Z,16.08
2022-07-29T02:10:17.585Z,16.08
2022-07-29T02:12:58.653Z,16.08
2022-07-29T02:15:38.573Z,16.08
2022-07-29T02:18:19.262Z,16.08
2022-07-29T02:21:01.416Z,16.06
2022-07-29T02:23:50.801Z,16.05
2022-07-29T02:26:31.355Z,16.02
2022-07-29T02:29:08.902Z,15.99
2022-07-29T02:31:48.626Z,15.97
2022-07-29T02:34:25.945Z,15.95
2022-07-29T02:37:05.039Z,15.91
2022-07-29T02:39:45.903Z,15.88
2022-07-29T02:42:25.564Z,15.85
2022-07-29T02:45:01.895Z,15.83
2022-07-29T02:47:46.116Z,15.81
2022-07-29T02:50:32.069Z,15.80
2022-07-29T02:53:18.470Z,15.79
2022-07-29T02:56:01.686Z,15.80
2022-07-29T02:58:43.710Z,15.80
2022-07-29T03:01:25.380Z,15.80
2022-07-29T03:04:07.081Z,15.80
2022-07-29T03:06:45.494Z,15.81
2022-07-29T03:09:23.028Z,15.81
2022-07-29T03:11:59.815Z,15.81
2022-07-29T03:14:37.371Z,15.81
2022-07-29T03:17:15.621Z,15.80
2022-07-29T03:19:52.269Z,15.81
2022-07-29T03:22:29.389Z,15.80
2022-07-29T03:25:13.835Z,15.80
2022-07-29T03:27:50.734Z,15.79
2022-07-29T03:30:26.912Z,15.80
2022-07-29T03:33:03.202Z,15.78
2022-07-29T03:35:49.839Z,15.78
2022-07-29T03:38:31.966Z,15.78
2022-07-29T03:41:16.709Z,15.79
2022-07-29T03:44:00.928Z,15.78
2022-07-29T03:46:41.225Z,15.79
2022-07-29T03:49:19.131Z,15.82
2022-07-29T03:51:55.500Z,15.81
2022-07-29T03:54:31.695Z,15.81
2022-07-29T03:57:09.925Z,15.85
2022-07-29T03:59:46.852Z,15.89
2022-07-29T04:02:28.693Z,15.93
2022-07-29T04:05:13.844Z,16.10
2022-07-29T04:07:52.671Z,16.42
2022-07-29T04:10:31.971Z,16.91
2022-07-29T04:13:09.994Z,17.49
2022-07-29T04:15:46.026Z,17.80
2022-07-29T04:18:22.139Z,18.16
2022-07-29T04:21:00.184Z,18.45
2022-07-29T04:23:36.235Z,18.71
2022-07-29T04:26:28.968Z,19.18
2022-07-29T04:29:05.748Z,19.68
2022-07-29T04:31:41.754Z,20.15
2022-07-29T04:34:19.079Z,20.59
2022-07-29T04:36:55.770Z,20.87
2022-07-29T04:39:32.107Z,21.21
2022-07-29T04:42:11.439Z,21.57
2022-07-29T04:44:47.392Z,21.73
2022-07-29T04:47:26.408Z,21.99
2022-07-29T04:50:02.468Z,22.23
2022-07-29T04:52:38.618Z,22.57
2022-07-29T04:55:16.005Z,22.73
2022-07-29T04:57:51.994Z,22.86
2022-07-29T05:00:33.144Z,22.99
2022-07-29T05:03:09.874Z,23.08
2022-07-29T05:05:45.857Z,23.27
2022-07-29T05:08:21.953Z,23.53
2022-07-29T05:10:58.332Z,23.74
2022-07-29T05:13:47.965Z,23.94
2022-07-29T05:16:24.081Z,24.04
2022-07-29T05:19:00.204Z,24.16
2022-07-29T05:21:36.271Z,24.08
2022-07-29T05:24:13.207Z,23.99
2022-07-29T05:26:49.462Z,24.02
2022-07-29T05:29:43.138Z,24.09
2022-07-29T05:32:21.413Z,24.09
2022-07-29T05:34:57.293Z,24.20
2022-07-29T05:37:33.561Z,24.36
2022-07-29T05:40:11.984Z,24.49
2022-07-29T05:42:48.575Z,24.63
2022-07-29T05:45:25.586Z,24.73
2022-07-29T05:48:01.639Z,24.93
2022-07-29T05:50:37.593Z,25.02
2022-07-29T05:53:24.152Z,25.09
2022-07-29T05:56:00.321Z,25.22
2022-07-29T05:58:36.549Z,25.44
2022-07-29T06:01:12.688Z,25.54
2022-07-29T06:03:48.797Z,25.80
2022-07-29T06:06:25.271Z,26.03
2022-07-29T06:09:01.634Z,26.09
2022-07-29T06:11:48.622Z,26.08
2022-07-29T06:14:24.703Z,26.21
2022-07-29T06:17:00.768Z,26.21
2022-07-29T06:19:42.058Z,26.23
2022-07-29T06:22:20.401Z,26.37
2022-07-29T06:24:56.540Z,26.37
2022-07-29T06:27:32.630Z,26.42
2022-07-29T06:30:11.257Z,26.67
2022-07-29T06:32:47.376Z,26.79
2022-07-29T06:35:42.301Z,27.05
2022-07-29T06:38:31.107Z,27.32
2022-07-29T06:41:16.983Z,27.69
2022-07-29T06:43:55.275Z,27.74
2022-07-29T06:46:33.454Z,27.97
2022-07-29T06:49:09.602Z,28.05
2022-07-29T06:51:45.907Z,27.85
2022-07-29T06:54:22.819Z,27.90
2022-07-29T06:57:00.218Z,27.82
2022-07-29T06:59:36.324Z,27.72
2022-07-29T07:02:12.404Z,27.57
2022-07-29T07:04:48.358Z,27.31
2022-07-29T07:07:25.396Z,27.28
2022-07-29T07:10:01.512Z,27.22
2022-07-29T07:12:37.487Z,27.33
2022-07-29T07:15:15.037Z,27.30
2022-07-29T07:17:51.402Z,27.33
2022-07-29T07:20:27.450Z,27.43
2022-07-29T07:23:03.450Z,27.65
2022-07-29T07:25:39.941Z,27.46
2022-07-29T07:28:16.074Z,27.39
2022-07-29T07:30:53.011Z,27.30
2022-07-29T07:33:29.487Z,27.19
2022-07-29T07:36:05.751Z,26.90
2022-07-29T07:38:41.768Z,26.57
2022-07-29T07:41:17.876Z,26.55
2022-07-29T07:43:53.899Z,26.29
2022-07-29T07:46:29.860Z,26.04
2022-07-29T07:49:05.912Z,25.82
2022-07-29T07:51:42.025Z,25.84
2022-07-29T07:54:26.500Z,25.83
2022-07-29T07:57:02.593Z,25.57
2022-07-29T07:59:38.631Z,25.58
2022-07-29T08:02:15.332Z,25.72
2022-07-29T08:04:51.591Z,25.81
2022-07-29T08:07:27.572Z,26.09
2022-07-29T08:10:03.670Z,26.43
2022-07-29T08:12:39.546Z,26.65
2022-07-29T08:15:16.118Z,26.69
2022-07-29T08:17:52.436Z,26.72
2022-07-29T08:20:28.596Z,26.71
2022-07-29T08:23:05.486Z,26.83
2022-07-29T08:25:42.928Z,26.98
2022-07-29T08:28:18.868Z,27.13
2022-07-29T08:30:55.063Z,27.17
2022-07-29T08:33:31.096Z,27.13
2022-07-29T08:36:08.612Z,27.08
2022-07-29T08:38:44.577Z,27.05
2022-07-29T08:41:21.845Z,27.11
2022-07-29T08:43:58.352Z,27.16
2022-07-29T08:46:34.343Z,27.11
2022-07-29T08:49:10.765Z,27.18
2022-07-29T08:51:53.188Z,27.43
2022-07-29T08:54:30.043Z,27.45
2022-07-29T08:57:07.339Z,27.16
2022-07-29T08:59:48.554Z,26.95
2022-07-29T09:02:30.278Z,26.78
2022-07-29T09:05:09.146Z,26.74
2022-07-29T09:07:49.151Z,26.81
2022-07-29T09:10:25.589Z,26.99
2022-07-29T09:13:03.035Z,26.98
2022-07-29T09:15:39.553Z,26.98
2022-07-29T09:18:35.038Z,26.80
2022-07-29T09:21:31.735Z,26.54
2022-07-29T09:24:11.839Z,26.47
2022-07-29T09:26:49.981Z,26.43
2022-07-29T09:29:31.163Z,26.42
2022-07-29T09:32:14.190Z,26.39
2022-07-29T09:34:50.264Z,26.38
2022-07-29T09:37:34.354Z,26.41
2022-07-29T09:40:20.042Z,26.36
2022-07-29T09:42:58.332Z,26.29
2022-07-29T09:45:38.860Z,26.49
2022-07-29T09:48:24.343Z,26.56
2022-07-29T09:51:01.113Z,26.45
2022-07-29T09:53:42.241Z,26.48
2022-07-29T09:56:18.436Z,26.50
2022-07-29T09:59:12.247Z,26.50
2022-07-29T10:01:48.951Z,26.43
2022-07-29T10:04:25.236Z,26.41
2022-07-29T10:07:06.572Z,26.48
2022-07-29T10:09:51.617Z,26.48
2022-07-29T10:12:28.322Z,26.58
2022-07-29T10:15:08.215Z,26.65
2022-07-29T10:17:44.999Z,26.62
2022-07-29T10:20:21.545Z,26.53
2022-07-29T10:22:58.324Z,26.52
2022-07-29T10:25:35.301Z,26.54
2022-07-29T10:28:16.018Z,26.66
2022-07-29T10:31:01.223Z,26.75
2022-07-29T10:33:54.993Z,26.93
2022-07-29T10:36:54.074Z,27.01
2022-07-29T10:39:57.008Z,27.06
2022-07-29T10:42:42.167Z,27.01
2022-07-29T10:45:22.610Z,27.08
2022-07-29T10:48:10.070Z,27.27
2022-07-29T10:51:07.005Z,27.30
2022-07-29T10:53:55.481Z,27.22
2022-07-29T10:56:35.518Z,27.14
2022-07-29T10:59:36.416Z,27.05
2022-07-29T11:02:56.611Z,27.07
2022-07-29T11:05:53.212Z,27.13
2022-07-29T11:08:31.928Z,27.17
2022-07-29T11:11:44.158Z,27.20
2022-07-29T11:15:02.755Z,27.22
2022-07-29T11:18:17.412Z,27.16
2022-07-29T11:20:55.371Z,27.03
2022-07-29T11:23:36.864Z,27.06
2022-07-29T11:26:26.854Z,27.13
2022-07-29T11:29:22.008Z,27.15
2022-07-29T11:32:18.326Z,27.12
2022-07-29T11:35:37.265Z,27.14
2022-07-29T11:38:32.843Z,27.16
2022-07-29T11:41:31.879Z,27.19
2022-07-29T11:44:09.023Z,27.16
2022-07-29T11:46:53.971Z,27.24
2022-07-29T11:49:33.193Z,27.40
2022-07-29T11:52:12.492Z,27.62
2022-07-29T11:54:57.702Z,27.79
2022-07-29T12:00:40.511Z,28.07
2022-07-29T12:03:35.568Z,28.23
2022-07-29T12:06:21.077Z,28.26
2022-07-29T12:07:02.364Z,27.95
2022-07-29T12:08:57.326Z,28.35
2022-07-29T12:11:34.175Z,28.38
2022-07-29T12:14:10.513Z,28.32
2022-07-29T12:16:48.241Z,28.29
2022-07-29T12:19:24.743Z,28.35
2022-07-29T12:22:02.473Z,28.34
2022-07-29T12:24:50.700Z,28.34
2022-07-29T12:27:33.886Z,28.29
2022-07-29T12:30:19.241Z,28.22
2022-07-29T12:32:56.542Z,28.15
2022-07-29T12:35:33.105Z,28.04
2022-07-29T12:38:11.577Z,28.05
2022-07-29T12:40:50.017Z,28.12
2022-07-29T12:43:27.741Z,28.15
2022-07-29T12:46:18.343Z,28.10
2022-07-29T12:48:59.881Z,28.05
2022-07-29T12:51:41.838Z,28.02
2022-07-29T12:54:19.403Z,27.94
2022-07-29T12:57:05.250Z,27.84
2022-07-29T12:59:41.389Z,27.73
2022-07-29T13:02:28.663Z,27.69
2022-07-29T13:05:07.523Z,27.63
2022-07-29T13:07:55.111Z,27.62
2022-07-29T13:10:39.216Z,27.63
2022-07-29T13:13:18.431Z,27.71
2022-07-29T13:16:11.693Z,27.72
2022-07-29T13:18:47.651Z,27.69
2022-07-29T13:21:23.692Z,27.59
2022-07-29T13:23:59.702Z,27.52
2022-07-29T13:26:35.946Z,27.48
2022-07-29T13:29:11.895Z,27.42
2022-07-29T13:31:47.994Z,27.42
2022-07-29T13:34:25.332Z,27.50
2022-07-29T13:37:01.385Z,27.60
2022-07-29T13:39:38.308Z,27.70
2022-07-29T13:42:15.285Z,27.80
2022-07-29T13:44:52.786Z,27.85
2022-07-29T13:47:32.381Z,27.97
2022-07-29T13:50:12.465Z,28.14
2022-07-29T13:52:49.610Z,28.32
2022-07-29T13:55:26.029Z,28.40
2022-07-29T13:58:02.113Z,28.45
2022-07-29T14:00:40.365Z,28.47
2022-07-29T14:03:16.348Z,28.47
2022-07-29T14:05:52.590Z,28.45
2022-07-29T14:08:29.001Z,28.38
2022-07-29T14:11:05.426Z,28.34
2022-07-29T14:13:41.476Z,28.24
2022-07-29T14:16:17.895Z,28.22
2022-07-29T14:18:53.921Z,28.19
2022-07-29T14:21:29.897Z,28.15
2022-07-29T14:24:17.083Z,28.11
2022-07-29T14:26:54.221Z,28.07
2022-07-29T14:29:37.750Z,28.01
2022-07-29T14:32:15.995Z,27.86
2022-07-29T14:34:52.086Z,27.72
2022-07-29T14:37:28.255Z,27.62
2022-07-29T14:40:16.973Z,27.53
2022-07-29T14:42:53.075Z,27.47
2022-07-29T14:45:30.133Z,27.43
2022-07-29T14:48:06.361Z,27.39
2022-07-29T14:50:42.484Z,27.37
2022-07-29T14:53:18.442Z,27.34
2022-07-29T14:55:54.943Z,27.31
2022-07-29T14:58:31.031Z,27.25
2022-07-29T15:01:07.268Z,27.19
2022-07-29T15:03:43.207Z,27.17
2022-07-29T15:06:19.322Z,27.15
2022-07-29T15:08:55.201Z,27.11
2022-07-29T15:11:31.278Z,27.06
2022-07-29T15:14:13.252Z,26.99
2022-07-29T15:16:49.473Z,26.94
2022-07-29T15:19:29.373Z,26.89
2022-07-29T15:22:07.086Z,26.84
2022-07-29T15:24:42.992Z,26.81
2022-07-29T15:27:18.919Z,26.80
2022-07-29T15:29:54.871Z,26.81
2022-07-29T15:32:33.429Z,26.82
2022-07-29T15:35:11.258Z,26.80
2022-07-29T15:37:48.938Z,26.79
2022-07-29T15:40:25.796Z,26.78
2022-07-29T15:43:06.833Z,26.78
2022-07-29T15:46:07.417Z,26.76
2022-07-29T15:48:44.453Z,26.76
2022-07-29T15:51:20.371Z,26.75
2022-07-29T15:53:56.820Z,26.75
2022-07-29T15:56:33.907Z,26.75
2022-07-29T15:59:22.408Z,26.74
2022-07-29T16:01:58.726Z,26.73
2022-07-29T16:04:35.129Z,26.70
2022-07-29T16:07:11.404Z,26.68
2022-07-29T16:09:52.809Z,26.66
2022-07-29T16:12:29.268Z,26.65
2022-07-29T16:15:09.743Z,26.63
2022-07-29T16:17:47.051Z,26.62
2022-07-29T16:20:23.464Z,26.60
2022-07-29T16:22:59.489Z,26.56
2022-07-29T16:25:58.587Z,26.53
2022-07-29T16:28:31.588Z,26.45
2022-07-29T16:31:07.513Z,26.38
2022-07-29T16:33:54.342Z,26.30
2022-07-29T16:36:31.840Z,26.16
2022-07-29T16:39:08.415Z,26.07
2022-07-29T16:41:44.444Z,25.92
2022-07-29T16:44:20.401Z,25.74
2022-07-29T16:47:01.419Z,25.40
2022-07-29T16:49:38.592Z,24.98
2022-07-29T16:52:14.726Z,24.51
2022-07-29T16:54:52.570Z,24.12
2022-07-29T16:57:28.696Z,23.79
2022-07-29T17:00:05.884Z,23.49
2022-07-29T17:02:41.905Z,23.19
2022-07-29T17:05:18.139Z,22.95
2022-07-29T17:07:54.765Z,22.75
2022-07-29T17:10:31.017Z,22.59
2022-07-29T17:13:07.028Z,22.43
2022-07-29T17:15:45.917Z,22.32
2022-07-29T17:18:21.873Z,22.22
2022-07-29T17:20:57.916Z,22.13
2022-07-29T17:23:35.988Z,21.99
2022-07-29T17:26:11.975Z,21.86
2022-07-29T17:28:49.106Z,21.76
2022-07-29T17:31:25.221Z,21.65
2022-07-29T17:34:02.861Z,21.54
2022-07-29T17:36:40.012Z,21.43
2022-07-29T17:39:16.140Z,21.34
2022-07-29T17:41:52.069Z,21.25
2022-07-29T17:44:28.049Z,21.12
2022-07-29T17:47:04.174Z,21.00
2022-07-29T17:49:40.152Z,20.90
2022-07-29T17:52:18.464Z,20.80
2022-07-29T17:54:55.016Z,20.67
2022-07-29T17:57:31.522Z,20.57
2022-07-29T18:00:15.610Z,20.50
2022-07-29T18:02:55.329Z,20.40
2022-07-29T18:05:31.581Z,20.28
2022-07-29T18:08:07.939Z,20.18
2022-07-29T18:10:44.119Z,20.10
2022-07-29T18:13:20.448Z,19.99
2022-07-29T18:16:00.042Z,19.91
2022-07-29T18:18:36.754Z,19.84
2022-07-29T18:21:13.104Z,19.77
2022-07-29T18:23:50.806Z,19.75
2022-07-29T18:26:30.471Z,19.66
2022-07-29T18:29:06.625Z,19.59
2022-07-29T18:31:46.543Z,19.50
2022-07-29T18:34:22.867Z,19.42
2022-07-29T18:36:59.266Z,19.35
2022-07-29T18:39:36.019Z,19.28
2022-07-29T18:42:12.400Z,19.24
2022-07-29T18:44:49.170Z,19.17
2022-07-29T18:47:32.307Z,19.12
2022-07-29T18:50:10.763Z,19.09
2022-07-29T18:52:47.265Z,19.05
2022-07-29T18:55:24.470Z,18.99
2022-07-29T18:58:00.432Z,18.93
2022-07-29T19:00:36.510Z,18.88
2022-07-29T19:03:12.628Z,18.85
2022-07-29T19:05:49.438Z,18.83
2022-07-29T19:08:25.625Z,18.81
2022-07-29T19:11:02.944Z,18.77
2022-07-29T19:13:39.108Z,18.74
2022-07-29T19:16:15.426Z,18.69
2022-07-29T19:18:51.639Z,18.66
2022-07-29T19:21:27.950Z,18.64
2022-07-29T19:24:07.668Z,18.64
2022-07-29T19:26:46.910Z,18.62
2022-07-29T19:29:23.656Z,18.61
2022-07-29T19:32:01.486Z,18.58
2022-07-29T19:34:37.648Z,18.58
2022-07-29T19:37:13.727Z,18.60
2022-07-29T19:39:49.682Z,18.63
2022-07-29T19:42:25.801Z,18.65
2022-07-29T19:45:01.839Z,18.64
2022-07-29T19:47:38.442Z,18.65
2022-07-29T19:50:15.818Z,18.67
2022-07-29T19:52:52.336Z,18.68
2022-07-29T19:55:28.442Z,18.71
2022-07-29T19:58:06.033Z,18.74
2022-07-29T20:00:44.789Z,18.79
2022-07-29T20:03:20.697Z,18.84
2022-07-29T20:05:56.840Z,18.93
2022-07-29T20:08:32.881Z,18.95
2022-07-29T20:11:09.710Z,18.89
2022-07-29T20:13:45.541Z,18.89
2022-07-29T20:16:22.524Z,18.90
2022-07-29T20:19:01.876Z,18.85
2022-07-29T20:21:38.091Z,18.82
2022-07-29T20:24:14.885Z,18.82
2022-07-29T20:26:51.130Z,18.83
2022-07-29T20:29:27.081Z,18.81
2022-07-29T20:32:04.548Z,18.81
2022-07-29T20:34:41.428Z,18.79
2022-07-29T20:37:20.655Z,18.79
2022-07-29T20:39:56.590Z,18.79
2022-07-29T20:42:32.619Z,18.79
2022-07-29T20:45:11.016Z,18.77
2022-07-29T20:47:47.084Z,18.78
2022-07-29T20:50:24.587Z,18.75
2022-07-29T20:53:00.585Z,18.71
2022-07-29T20:55:36.604Z,18.73
2022-07-29T20:58:13.128Z,18.74
2022-07-29T21:00:49.201Z,18.74
2022-07-29T21:03:25.254Z,18.72
2022-07-29T21:06:01.725Z,18.69
2022-07-29T21:08:38.296Z,18.65
2022-07-29T21:11:14.281Z,18.60
2022-07-29T21:13:50.584Z,18.56
2022-07-29T21:16:28.808Z,18.53
2022-07-29T21:19:05.171Z,18.50
2022-07-29T21:21:41.356Z,18.50
2022-07-29T21:24:17.393Z,18.49
2022-07-29T21:27:20.695Z,18.48
2022-07-29T21:29:57.489Z,18.46
2022-07-29T21:32:36.635Z,18.44
2022-07-29T21:35:35.860Z,18.42
2022-07-29T21:38:09.520Z,18.43
2022-07-29T21:40:45.581Z,18.42
2022-07-29T21:43:23.422Z,18.43
2022-07-29T21:46:00.283Z,18.41
2022-07-29T21:48:37.091Z,18.43
2022-07-29T21:51:15.265Z,18.43
2022-07-29T21:53:53.145Z,18.43
2022-07-29T21:56:31.926Z,18.46
2022-07-29T21:59:09.804Z,18.46
2022-07-29T22:01:49.131Z,18.49
2022-07-29T22:04:25.111Z,18.52
2022-07-29T22:07:01.903Z,18.51
2022-07-29T22:09:38.266Z,18.54
2022-07-29T22:12:14.480Z,18.54
2022-07-29T22:14:50.382Z,18.55
2022-07-29T22:17:26.347Z,18.58
2022-07-29T22:20:06.140Z,18.58
2022-07-29T22:22:42.532Z,18.58
2022-07-29T22:25:18.990Z,18.58
2022-07-29T22:27:54.949Z,18.57
2022-07-29T22:30:31.221Z,18.57
2022-07-29T22:33:07.328Z,18.56
2022-07-29T22:35:43.162Z,18.55
2022-07-29T22:38:19.643Z,18.55
2022-07-29T22:41:00.702Z,18.54
2022-07-29T22:43:39.315Z,18.55
2022-07-29T22:46:16.034Z,18.55
2022-07-29T22:48:52.093Z,18.52
2022-07-29T22:51:28.053Z,18.49
2022-07-29T22:54:04.458Z,18.48
2022-07-29T22:56:40.436Z,18.46
2022-07-29T22:59:16.449Z,18.45
2022-07-29T23:01:52.542Z,18.41
2022-07-29T23:04:29.179Z,18.38
2022-07-29T23:07:05.090Z,18.33
2022-07-29T23:09:41.150Z,18.32
2022-07-29T23:12:17.685Z,18.29
2022-07-29T23:14:53.657Z,18.26
2022-07-29T23:17:29.805Z,18.24
2022-07-29T23:20:09.942Z,18.21
2022-07-29T23:22:46.061Z,18.20
2022-07-29T23:25:22.382Z,18.18
2022-07-29T23:27:58.301Z,18.15
2022-07-29T23:30:34.525Z,18.13
2022-07-29T23:33:10.519Z,18.09
2022-07-29T23:35:46.581Z,18.08
2022-07-29T23:38:22.510Z,18.04
2022-07-29T23:40:58.952Z,18.01
2022-07-29T23:43:37.548Z,17.99
2022-07-29T23:46:13.888Z,17.98
2022-07-29T23:48:51.945Z,17.94
2022-07-29T23:51:29.342Z,17.92
2022-07-29T23:54:09.232Z,17.90
